Reklama

Seznam meteostanic a jejich METAR

Vyhledat místa podle abecedy:
A B C D E F G H I J K L M N O P Q R S T U V W X Y Z

Filtrovat:

ID stanice:
a/nebo
Název místa (fulltext):
 
Místo (ID)Naposledy načteno 
Holešov (Holesov) 06.12.2019 00:00 UTC Zobrazit data
Místo: Holešov
Teplota: -1 °C (pocitová: -10.6 °C)
Vítr: 5 m/s z(e) 180°
Počasí: zataženo
Dohlednost: 10 km
Zákl. oblačnosti: 8/8 300 m
Vlhkost: 86%
Hamburg (EDDH) 05.12.2019 23:50 UTC Zobrazit METAR
EDDH 052350Z 22016KT 8000 SCT012 03/00 Q1009 TEMPO 21015G25KT BKN012
Hannover (EDDV) 05.12.2019 23:50 UTC Zobrazit METAR
EDDV 052350Z 22006KT CAVOK 02/M02 Q1013
Hanoi (VVNB) 06.12.2019 00:00 UTC Zobrazit METAR
VVNB 060000Z 31005KT CAVOK 14/02 Q1030 NOSIG
Harare (FVHA) 13.09.2018 03:00 UTC Zobrazit METAR
FVHA 130300Z 07008KT CAVOK 14/07 Q1022 NOSIG
Havana (MUHA) 05.12.2019 23:55 UTC Zobrazit METAR
MUHA 052355Z 07002KT 9000 FEW030 18/15 Q1019
Helsinki (EFHK) 05.12.2019 23:50 UTC Zobrazit METAR
EFHK 052350Z 23014KT 9999 -RA FEW015 BKN019 BKN025 06/04 Q0991 NOSIG
Hong Kong (VHHH) 06.12.2019 00:00 UTC Zobrazit METAR
VHHH 060000Z 03010KT 9999 FEW045 15/M02 Q1026 NOSIG
Honiara (AGGH) 05.12.2019 00:00 UTC Zobrazit METAR
AGGH 060000Z 05008KT 9999 FEW020 SCT100 BKN300 31/24 Q1008
Horta (LPHR) 05.12.2019 21:00 UTC Zobrazit METAR
LPHR 052100Z 35005KT 9999 FEW020 SCT040 15/11 Q1031
Reklama

Počasí na Váš email

Emaily jsou bez reklamy a bez spamu



Odhlásit newsletter

Reklama


Lunární kalendář

  • 12.12.
  • 19.12.
  • 26.12.
  • 03.01.



Reklama


Reklama
Povinné ručení
Reklama



Reklama